Terminal Aerodrome Forecast
Issued by NWS Indianapolis, IN

Home | Current Version | Previous Version | Text Only | Print | Product List | Glossary On
Versions: 1 2 3 4 5 6 7 8 9 10 11 12 13 14 15 16 17 18 19 20 21 22 23 24 25 26 27
942
FTUS43 KIND 131125
TAFIND
TAF
KIND 131125Z 1312/1418 19005KT P6SM BKN110
     FM131500 19010KT P6SM BKN140
     FM132300 26017G30KT P6SM OVC070
     FM140100 27017G28KT P6SM OVC030
     FM140700 32012KT P6SM BKN040
     FM141300 36007KT P6SM SCT200=

USA.gov is the U.S. government's official web portal to all federal, state and local government web resources and services.